Time;durP1;ratioP1;P1;durP2;ratioP2;P2;SDS_P1;SDS_P2;PMS_P1;PMS_P2;Temp;Humidity;BMP_temperature;BMP_pressure;BME280_temperature;BME280_humidity;BME280_pressure;Samples;Min_cycle;Max_cycle;Signal;HPM_P1;HPM_P2
2023/02/24 00:01:28;;;;;;;59.20;21.83;;;7.00;99.90;;;;;;5015335;28;20561;-65
2023/02/24 00:03:59;;;;;;;68.37;23.13;;;6.90;99.90;;;;;;5015086;28;20481;-64
2023/02/24 00:06:34;;;;;;;62.17;24.10;;;6.90;99.90;;;;;;5015506;28;20458;-65
2023/02/24 00:09:04;;;;;;;63.23;22.40;;;6.90;99.90;;;;;;5015079;28;20480;-65
2023/02/24 00:11:30;;;;;;;68.27;21.20;;;6.90;99.90;;;;;;5015278;28;20913;-64
2023/02/24 00:13:58;;;;;;;62.20;21.93;;;6.90;99.90;;;;;;5015408;28;20459;-65
2023/02/24 00:16:25;;;;;;;56.60;20.50;;;7.00;99.90;;;;;;5015354;28;20795;-65
2023/02/24 00:18:52;;;;;;;60.23;20.40;;;6.90;99.90;;;;;;5014898;28;20496;-63
2023/02/24 00:21:21;;;;;;;64.20;22.17;;;6.90;99.90;;;;;;5015509;28;20816;-65
2023/02/24 00:23:47;;;;;;;57.07;21.70;;;6.90;99.90;;;;;;5015318;28;20491;-65
2023/02/24 00:26:16;;;;;;;61.47;20.43;;;6.90;99.90;;;;;;5015045;28;20457;-65
2023/02/24 00:28:43;;;;;;;58.40;21.63;;;6.80;99.90;;;;;;5014737;28;20503;-65
2023/02/24 00:31:12;;;;;;;57.03;20.30;;;6.80;99.90;;;;;;5014987;28;20595;-65
2023/02/24 00:33:40;;;;;;;58.80;22.17;;;6.70;99.90;;;;;;5014536;28;20858;-64
2023/02/24 00:36:09;;;;;;;51.00;19.37;;;6.70;99.90;;;;;;5014847;28;20457;-64
2023/02/24 00:38:38;;;;;;;45.13;17.43;;;6.60;99.90;;;;;;5014563;28;20461;-65
2023/02/24 00:41:11;;;;;;;47.87;16.30;;;6.60;99.90;;;;;;5014530;28;20461;-65
2023/02/24 00:43:38;;;;;;;52.30;18.87;;;6.60;99.90;;;;;;5014726;28;20481;-64
2023/02/24 00:46:09;;;;;;;40.03;15.97;;;6.60;99.90;;;;;;5014393;28;20488;-65
2023/02/24 00:48:39;;;;;;;37.87;15.30;;;6.60;99.90;;;;;;5015205;28;20492;-65
2023/02/24 00:51:09;;;;;;;31.90;12.57;;;6.50;99.90;;;;;;5014756;28;20795;-65
2023/02/24 00:53:38;;;;;;;29.37;13.23;;;6.40;99.90;;;;;;5014712;28;20510;-64
2023/02/24 00:56:07;;;;;;;33.90;13.60;;;6.40;99.90;;;;;;5014698;28;20801;-65
2023/02/24 00:58:34;;;;;;;32.97;12.50;;;6.40;99.90;;;;;;5014773;28;20472;-65
2023/02/24 01:01:02;;;;;;;30.03;11.47;;;6.30;99.90;;;;;;5014578;28;20465;-64
2023/02/24 01:03:30;;;;;;;19.73;8.37;;;6.10;99.90;;;;;;5014590;28;20625;-65
2023/02/24 01:06:01;;;;;;;24.03;9.73;;;6.10;99.90;;;;;;5014955;28;20460;-64
2023/02/24 01:08:28;;;;;;;14.37;8.00;;;6.00;99.90;;;;;;5014763;28;20449;-64
2023/02/24 01:13:38;;;;;;;22.60;7.80;;;5.90;99.90;;;;;;5014573;28;20483;-64
2023/02/24 01:16:06;;;;;;;14.50;6.87;;;5.90;99.90;;;;;;5014636;28;20543;-70
2023/02/24 01:18:33;;;;;;;15.33;6.17;;;5.80;99.90;;;;;;5014694;28;20793;-69
2023/02/24 01:21:02;;;;;;;18.13;6.23;;;5.80;99.90;;;;;;5014606;28;20467;-69
2023/02/24 01:23:29;;;;;;;14.97;6.20;;;5.80;99.90;;;;;;5014593;28;20941;-68
2023/02/24 01:25:58;;;;;;;15.97;6.47;;;5.80;99.90;;;;;;5014463;28;20460;-68
2023/02/24 01:28:26;;;;;;;15.90;5.77;;;5.80;99.90;;;;;;5014324;28;20468;-71
2023/02/24 01:30:53;;;;;;;13.77;4.80;;;5.70;99.90;;;;;;5017432;28;20460;-69
2023/02/24 01:33:20;;;;;;;14.07;5.17;;;5.70;99.90;;;;;;5018243;28;20463;-69
2023/02/24 01:35:47;;;;;;;15.87;5.93;;;5.60;99.90;;;;;;5019049;28;20467;-70
2023/02/24 01:38:14;;;;;;;18.77;6.00;;;5.60;99.90;;;;;;5017950;28;20493;-69
2023/02/24 01:40:41;;;;;;;15.80;5.43;;;5.50;99.90;;;;;;5018220;28;20929;-69
2023/02/24 01:43:11;;;;;;;17.23;4.77;;;5.40;99.90;;;;;;5017896;28;20487;-69
2023/02/24 01:45:39;;;;;;;11.80;4.30;;;5.40;99.90;;;;;;5018131;28;21041;-69
2023/02/24 01:48:09;;;;;;;16.93;5.73;;;5.40;99.90;;;;;;5017922;28;20496;-69
2023/02/24 01:50:38;;;;;;;14.90;4.80;;;5.40;99.90;;;;;;5018120;28;20432;-69
2023/02/24 01:53:07;;;;;;;18.50;4.93;;;5.30;99.90;;;;;;5017893;28;20460;-69
2023/02/24 01:55:38;;;;;;;18.40;4.70;;;5.30;99.90;;;;;;5018254;28;20461;-68
2023/02/24 01:58:10;;;;;;;17.00;3.80;;;5.30;99.90;;;;;;5017927;28;20517;-69
2023/02/24 02:00:44;;;;;;;15.37;4.10;;;5.30;99.90;;;;;;5017782;28;20445;-69
2023/02/24 02:03:21;;;;;;;9.70;4.00;;;5.30;99.90;;;;;;5018518;28;20523;-69
2023/02/24 02:05:48;;;;;;;21.30;5.70;;;5.10;99.90;;;;;;5018443;28;20760;-69
2023/02/24 02:08:16;;;;;;;21.63;4.50;;;5.10;99.90;;;;;;5017884;28;20466;-69
2023/02/24 02:10:44;;;;;;;18.53;3.60;;;4.80;99.90;;;;;;5017520;28;20456;-69
2023/02/24 02:13:13;;;;;;;15.73;3.67;;;4.70;99.90;;;;;;5017428;28;20453;-69
2023/02/24 02:15:51;;;;;;;7.67;2.83;;;4.60;99.90;;;;;;5017088;28;20469;-69
2023/02/24 02:18:24;;;;;;;9.83;2.43;;;4.60;99.90;;;;;;5016933;28;20455;-69
2023/02/24 02:21:33;;;;;;;9.37;2.70;;;4.70;99.90;;;;;;5017076;28;20890;-69
2023/02/24 02:24:14;;;;;;;11.03;2.70;;;4.60;99.90;;;;;;5016891;28;20807;-69
2023/02/24 02:27:19;;;;;;;14.80;2.53;;;4.60;99.90;;;;;;5017001;28;20440;-69
2023/02/24 02:30:18;;;;;;;8.70;2.93;;;4.60;99.90;;;;;;5017129;28;20467;-69
2023/02/24 02:33:33;;;;;;;12.70;3.07;;;4.50;99.90;;;;;;5017306;28;20457;-69
2023/02/24 02:36:13;;;;;;;14.27;2.80;;;4.50;99.90;;;;;;4937877;29;20452;-69
2023/02/24 02:38:48;;;;;;;12.33;2.40;;;4.50;99.90;;;;;;5014850;28;20461;-69
2023/02/24 02:41:23;;;;;;;8.33;2.47;;;4.30;93.70;;;;;;5016965;28;20773;-69
2023/02/24 02:43:54;;;;;;;7.73;2.70;;;4.20;30.60;;;;;;5016873;28;20468;-69
2023/02/24 02:46:33;;;;;;;4.97;2.83;;;4.00;1.00;;;;;;5016517;28;20572;-68
2023/02/24 02:49:06;;;;;;;13.43;2.80;;;4.00;99.90;;;;;;5016904;28;20467;-69
2023/02/24 02:51:39;;;;;;;13.23;3.00;;;4.00;1.00;;;;;;5016642;28;20441;-69
2023/02/24 02:54:16;;;;;;;7.40;2.37;;;4.00;1.00;;;;;;5016480;28;20441;-68
2023/02/24 02:56:48;;;;;;;9.87;2.70;;;4.00;1.00;;;;;;5016627;28;20455;-69
2023/02/24 02:59:21;;;;;;;8.60;3.00;;;4.00;1.00;;;;;;5016270;28;20441;-69
2023/02/24 03:01:50;;;;;;;8.83;2.50;;;4.00;99.90;;;;;;5016455;28;20532;-68
2023/02/24 03:04:21;;;;;;;8.20;3.20;;;4.10;1.00;;;;;;5016492;28;20837;-68
2023/02/24 03:06:55;;;;;;;6.23;2.40;;;4.00;1.00;;;;;;5016624;28;20441;-69
2023/02/24 03:09:25;;;;;;;8.60;3.23;;;4.00;1.00;;;;;;5016261;28;20449;-68
2023/02/24 03:11:58;;;;;;;5.13;2.47;;;3.90;1.00;;;;;;5015885;28;20548;-68
2023/02/24 03:14:29;;;;;;;13.43;3.67;;;3.80;99.90;;;;;;5016240;28;20433;-68
2023/02/24 03:16:58;;;;;;;6.90;2.23;;;3.90;99.90;;;;;;5016304;28;20448;-69
2023/02/24 03:19:30;;;;;;;5.67;2.40;;;3.90;90.50;;;;;;5016282;28;20475;-69
2023/02/24 03:22:07;;;;;;;6.77;2.40;;;3.90;65.70;;;;;;5015984;28;20898;-69
2023/02/24 03:24:37;;;;;;;14.83;2.80;;;4.00;22.30;;;;;;5016105;28;20814;-69
2023/02/24 03:27:11;;;;;;;9.23;3.00;;;4.00;99.90;;;;;;5015909;28;20857;-68
2023/02/24 03:29:44;;;;;;;16.40;3.43;;;4.00;1.00;;;;;;5016015;28;20794;-69
2023/02/24 03:32:15;;;;;;;6.73;2.43;;;3.90;99.90;;;;;;5015605;28;20456;-69
2023/02/24 03:34:48;;;;;;;9.80;2.70;;;4.00;1.00;;;;;;5015922;28;20469;-68
2023/02/24 03:37:24;;;;;;;11.60;2.80;;;3.90;1.00;;;;;;5015958;28;20529;-67
2023/02/24 03:39:52;;;;;;;9.70;2.63;;;4.00;1.00;;;;;;5015646;28;20441;-68
2023/02/24 03:42:20;;;;;;;12.00;2.63;;;3.90;1.00;;;;;;5015802;28;20543;-69
2023/02/24 03:44:48;;;;;;;11.67;3.63;;;3.90;1.00;;;;;;5015551;28;20488;-68
2023/02/24 03:47:18;;;;;;;8.20;2.43;;;3.90;1.00;;;;;;5015808;28;20460;-68
2023/02/24 03:49:45;;;;;;;9.90;3.17;;;3.90;90.50;;;;;;5015890;28;20461;-67
2023/02/24 03:52:28;;;;;;;14.03;3.07;;;3.90;99.90;;;;;;5015685;28;20788;-68
2023/02/24 03:55:11;;;;;;;9.73;4.47;;;3.90;99.90;;;;;;5015932;28;20451;-69
2023/02/24 03:57:54;;;;;;;8.40;2.60;;;3.90;99.90;;;;;;5015543;28;20441;-67
2023/02/24 04:00:33;;;;;;;5.70;3.33;;;3.90;99.90;;;;;;5015115;28;20440;-67
2023/02/24 04:03:08;;;;;;;10.63;3.20;;;4.00;99.90;;;;;;5015418;28;20455;-68
2023/02/24 04:05:46;;;;;;;12.77;3.20;;;4.10;99.90;;;;;;5015448;28;20749;-68
2023/02/24 04:08:16;;;;;;;11.70;2.97;;;4.00;99.90;;;;;;5015399;28;20441;-68
2023/02/24 04:10:54;;;;;;;11.30;3.07;;;4.00;99.90;;;;;;5015228;28;20897;-68
2023/02/24 04:13:34;;;;;;;13.33;2.83;;;4.00;1.00;;;;;;5015477;28;20523;-68
2023/02/24 04:16:07;;;;;;;9.17;3.27;;;4.00;1.60;;;;;;5015238;28;20437;-68
2023/02/24 04:18:35;;;;;;;9.13;2.93;;;4.00;47.10;;;;;;5015239;28;20673;-68
2023/02/24 04:21:04;;;;;;;11.00;3.50;;;3.90;1.00;;;;;;5015432;28;20456;-68
2023/02/24 04:23:37;;;;;;;8.13;3.57;;;4.00;99.90;;;;;;5015300;28;20512;-67
2023/02/24 04:26:06;;;;;;;14.37;3.07;;;4.00;50.50;;;;;;5015489;28;20548;-68
2023/02/24 04:28:34;;;;;;;11.60;3.50;;;4.00;1.00;;;;;;5015457;28;20457;-68
2023/02/24 04:31:05;;;;;;;9.83;3.60;;;3.90;1.00;;;;;;5014909;28;20592;-69
2023/02/24 04:33:32;;;;;;;5.60;2.77;;;3.90;1.00;;;;;;5014671;28;20444;-68
2023/02/24 04:35:59;;;;;;;6.13;3.33;;;3.90;1.00;;;;;;5014716;28;20922;-69
2023/02/24 04:38:26;;;;;;;8.10;2.87;;;3.90;99.90;;;;;;5014803;28;20499;-68
2023/02/24 04:40:56;;;;;;;8.73;3.00;;;3.90;1.00;;;;;;5015423;28;20622;-69
2023/02/24 04:43:23;;;;;;;11.40;3.63;;;3.80;1.00;;;;;;5014982;28;20457;-68
2023/02/24 04:45:51;;;;;;;9.97;3.60;;;3.90;99.90;;;;;;5014470;28;20500;-69
2023/02/24 04:48:19;;;;;;;11.83;4.20;;;3.90;13.00;;;;;;5014731;28;20468;-69
2023/02/24 04:50:47;;;;;;;8.83;3.43;;;4.00;99.90;;;;;;5014726;28;20467;-68
2023/02/24 04:53:16;;;;;;;5.90;3.13;;;3.90;68.60;;;;;;5014766;28;20456;-68
2023/02/24 04:55:47;;;;;;;18.17;3.80;;;3.80;99.90;;;;;;5014882;28;20501;-68
2023/02/24 04:58:19;;;;;;;10.87;3.53;;;3.80;99.90;;;;;;5014694;28;20839;-68
2023/02/24 05:00:47;;;;;;;9.80;3.97;;;3.80;99.90;;;;;;5014630;28;20886;-69
2023/02/24 05:03:15;;;;;;;9.50;3.03;;;3.80;99.90;;;;;;5014494;28;20461;-68
2023/02/24 05:05:50;;;;;;;11.70;2.53;;;3.80;1.00;;;;;;5017369;28;20548;-69
2023/02/24 05:08:18;;;;;;;5.20;2.60;;;3.80;1.00;;;;;;5019284;28;20441;-69
2023/02/24 05:10:46;;;;;;;11.27;3.73;;;3.90;1.00;;;;;;5018814;28;20465;-68
2023/02/24 05:13:17;;;;;;;9.70;3.73;;;3.90;1.00;;;;;;5022315;28;20464;-69
2023/02/24 05:15:45;;;;;;;12.50;2.90;;;3.80;1.00;;;;;;5038319;28;20947;-69
2023/02/24 05:18:15;;;;;;;11.40;3.23;;;3.80;99.90;;;;;;5026359;28;20457;-68
2023/02/24 05:23:32;;;;;;;8.33;3.90;;;3.80;99.90;;;;;;5018708;28;20442;-69
2023/02/24 05:25:59;;;;;;;4.73;2.60;;;3.80;99.90;;;;;;5018672;28;20488;-67
2023/02/24 05:28:30;;;;;;;10.90;2.77;;;3.90;1.00;;;;;;5018207;28;20936;-68
2023/02/24 05:31:07;;;;;;;12.30;3.20;;;3.80;99.90;;;;;;5018539;28;20445;-69
2023/02/24 05:33:34;;;;;;;15.03;2.47;;;3.80;99.90;;;;;;5018236;28;20485;-69
2023/02/24 05:36:05;;;;;;;10.40;2.40;;;3.80;1.00;;;;;;5018394;28;20467;-69
2023/02/24 05:38:36;;;;;;;11.93;2.90;;;3.80;1.00;;;;;;5018031;28;20453;-68
2023/02/24 05:41:05;;;;;;;9.37;3.13;;;3.80;79.20;;;;;;5018155;28;20472;-69
2023/02/24 05:43:35;;;;;;;6.00;2.47;;;3.80;99.90;;;;;;5017801;28;20465;-69
2023/02/24 05:46:03;;;;;;;8.23;2.50;;;3.70;99.90;;;;;;5017688;28;20485;-69
2023/02/24 05:48:33;;;;;;;6.43;2.33;;;3.70;1.00;;;;;;5018304;28;20461;-68
2023/02/24 05:51:01;;;;;;;9.57;3.03;;;3.70;1.00;;;;;;5017673;28;20455;-67
2023/02/24 05:53:28;;;;;;;11.90;2.23;;;3.70;1.00;;;;;;5018054;28;20547;-68
2023/02/24 05:55:55;;;;;;;10.53;2.40;;;3.70;1.00;;;;;;5017477;28;20463;-68
2023/02/24 05:58:23;;;;;;;8.47;2.17;;;3.80;99.90;;;;;;5017875;28;20847;-67
2023/02/24 06:00:51;;;;;;;6.43;2.20;;;3.70;99.90;;;;;;5017763;28;20922;-67
2023/02/24 06:03:29;;;;;;;7.53;2.87;;;3.70;1.00;;;;;;5017401;28;20940;-67
2023/02/24 06:05:58;;;;;;;5.43;1.90;;;3.70;99.90;;;;;;5017749;28;20461;-67
2023/02/24 06:08:25;;;;;;;5.47;2.47;;;3.80;99.90;;;;;;5017767;28;20854;-67
2023/02/24 06:10:52;;;;;;;8.80;2.40;;;3.80;99.90;;;;;;5017792;28;20453;-66
2023/02/24 06:13:19;;;;;;;7.40;2.47;;;3.80;99.90;;;;;;5017708;28;20459;-67
2023/02/24 06:15:49;;;;;;;8.00;1.80;;;3.80;1.00;;;;;;5017036;28;20452;-67
2023/02/24 06:18:17;;;;;;;6.17;1.67;;;3.80;1.00;;;;;;5017326;28;20996;-66
2023/02/24 06:20:49;;;;;;;3.60;1.70;;;3.90;24.90;;;;;;5017659;28;20485;-67
2023/02/24 06:23:16;;;;;;;9.07;2.90;;;3.90;74.50;;;;;;5017553;28;20436;-67
2023/02/24 06:25:44;;;;;;;12.17;2.57;;;3.90;99.90;;;;;;5017133;28;20484;-66
2023/02/24 06:28:11;;;;;;;6.57;3.00;;;3.90;1.00;;;;;;5017371;28;20461;-67
2023/02/24 06:30:38;;;;;;;10.93;2.83;;;3.90;1.00;;;;;;5017562;28;20457;-66
2023/02/24 06:33:05;;;;;;;5.37;2.10;;;3.80;1.00;;;;;;5017332;28;20543;-67
2023/02/24 06:35:34;;;;;;;5.53;3.20;;;3.80;1.00;;;;;;5017153;28;20847;-67
2023/02/24 06:38:00;;;;;;;7.73;3.17;;;3.80;99.90;;;;;;5016674;28;20921;-67
2023/02/24 06:40:27;;;;;;;10.30;3.23;;;3.80;99.90;;;;;;5016807;28;20925;-67
2023/02/24 06:42:54;;;;;;;4.57;2.27;;;3.80;1.00;;;;;;5016952;28;20487;-66
2023/02/24 06:45:23;;;;;;;13.73;3.27;;;3.80;1.00;;;;;;5016410;28;20631;-67
2023/02/24 06:47:50;;;;;;;7.50;2.70;;;3.80;1.00;;;;;;5016616;28;20464;-67
2023/02/24 06:50:18;;;;;;;8.70;2.50;;;3.90;1.00;;;;;;5016541;28;20463;-68
2023/02/24 06:52:47;;;;;;;6.67;2.80;;;3.90;1.00;;;;;;5016922;28;20465;-68
2023/02/24 06:55:25;;;;;;;8.57;2.43;;;3.90;1.00;;;;;;5016493;28;20463;-67
2023/02/24 06:57:55;;;;;;;6.50;2.80;;;3.80;99.90;;;;;;5016881;28;20452;-68
2023/02/24 07:00:26;;;;;;;12.83;2.80;;;3.80;1.00;;;;;;5016751;28;20473;-67
2023/02/24 07:02:55;;;;;;;9.33;2.97;;;3.80;1.00;;;;;;5016777;28;20449;-67
2023/02/24 07:05:23;;;;;;;5.27;2.60;;;3.80;1.00;;;;;;5016454;28;20500;-68
2023/02/24 07:07:51;;;;;;;8.20;2.93;;;3.80;1.00;;;;;;5016555;28;20469;-67
2023/02/24 07:10:18;;;;;;;7.90;3.00;;;3.90;1.00;;;;;;5017114;28;20467;-69
2023/02/24 07:12:44;;;;;;;7.73;2.87;;;3.80;1.00;;;;;;5016687;28;20539;-68
2023/02/24 07:15:12;;;;;;;9.47;2.40;;;3.80;1.00;;;;;;5016332;28;20493;-69
2023/02/24 07:17:39;;;;;;;6.70;1.93;;;3.80;1.00;;;;;;5016649;28;20793;-69
2023/02/24 07:20:10;;;;;;;5.87;2.83;;;3.90;1.00;;;;;;5016256;28;20539;-68
2023/02/24 07:22:37;;;;;;;4.83;2.47;;;3.80;1.00;;;;;;5016078;28;20451;-68
2023/02/24 07:25:06;;;;;;;5.93;2.20;;;3.80;99.90;;;;;;5016693;28;20489;-68
2023/02/24 07:27:33;;;;;;;2.13;1.93;;;3.80;99.90;;;;;;5015586;28;20503;-68
2023/02/24 07:30:04;;;;;;;10.80;2.50;;;3.80;99.90;;;;;;5015995;28;20964;-68
2023/02/24 07:32:31;;;;;;;5.07;2.13;;;3.90;99.90;;;;;;5016080;28;20512;-68
2023/02/24 07:34:58;;;;;;;7.00;2.40;;;3.90;64.80;;;;;;5015723;28;20540;-67
2023/02/24 07:37:30;;;;;;;7.30;2.60;;;3.90;1.00;;;;;;5015882;28;20467;-69
2023/02/24 07:39:57;;;;;;;6.03;2.07;;;3.80;1.00;;;;;;5015922;28;20537;-69
2023/02/24 07:42:29;;;;;;;8.80;2.10;;;3.80;1.00;;;;;;5015791;28;20852;-68
2023/02/24 07:44:56;;;;;;;11.40;2.90;;;3.70;1.00;;;;;;5015421;28;20503;-68
2023/02/24 07:47:24;;;;;;;5.33;2.00;;;3.70;1.00;;;;;;5015344;28;20493;-69
2023/02/24 07:49:50;;;;;;;5.17;2.13;;;3.80;1.00;;;;;;5016935;28;20787;-64
2023/02/24 07:52:17;;;;;;;6.10;2.30;;;3.80;99.90;;;;;;5015912;28;20869;-66
2023/02/24 07:54:44;;;;;;;4.73;2.43;;;3.80;99.90;;;;;;5016156;28;20453;-65
2023/02/24 07:57:12;;;;;;;4.40;2.37;;;3.80;77.90;;;;;;5015174;28;20902;-65
2023/02/24 07:59:45;;;;;;;7.60;2.53;;;3.80;44.90;;;;;;5015308;28;20461;-63
2023/02/24 08:02:12;;;;;;;6.10;2.50;;;3.80;99.90;;;;;;5015516;28;20467;-63
2023/02/24 08:04:43;;;;;;;12.13;3.27;;;3.90;1.00;;;;;;5015478;28;20485;-65
2023/02/24 08:07:13;;;;;;;9.50;3.80;;;3.90;6.90;;;;;;5015355;28;20452;-65
2023/02/24 08:12:26;;;;;;;7.27;3.10;;;4.00;1.00;;;;;;5015054;28;20476;-64
2023/02/24 08:14:59;;;;;;;10.10;3.20;;;4.00;1.00;;;;;;5014994;28;20492;-65
2023/02/24 08:17:27;;;;;;;5.93;3.03;;;4.00;1.00;;;;;;5015117;28;20456;-65
2023/02/24 08:20:20;;;;;;;6.50;3.13;;;4.20;1.00;;;;;;5014951;28;20453;-63
2023/02/24 08:22:51;;;;;;;3.23;1.90;;;4.10;1.00;;;;;;5015237;28;20847;-65
2023/02/24 08:25:21;;;;;;;4.80;2.80;;;4.10;1.00;;;;;;5014674;28;20472;-64
2023/02/24 08:28:04;;;;;;;6.50;2.53;;;4.10;1.00;;;;;;5014449;28;20556;-64
2023/02/24 08:30:38;;;;;;;10.53;2.77;;;4.20;1.00;;;;;;5014996;28;20451;-64
2023/02/24 08:33:06;;;;;;;8.27;2.53;;;4.30;1.00;;;;;;5014413;28;20504;-64
2023/02/24 08:35:34;;;;;;;5.53;2.70;;;4.20;1.00;;;;;;5014785;28;20543;-65
2023/02/24 08:38:04;;;;;;;11.20;1.83;;;4.30;5.10;;;;;;5014658;28;20792;-65
2023/02/24 08:40:48;;;;;;;8.47;2.47;;;4.40;1.00;;;;;;5014601;28;20461;-65
2023/02/24 08:43:23;;;;;;;6.00;2.90;;;4.30;49.60;;;;;;5014957;28;20519;-64
2023/02/24 08:45:55;;;;;;;3.40;1.90;;;4.30;29.60;;;;;;5014269;28;20983;-64
2023/02/24 08:48:31;;;;;;;8.37;2.97;;;4.40;55.60;;;;;;5015002;28;20457;-64
2023/02/24 08:51:01;;;;;;;9.20;2.67;;;4.30;99.90;;;;;;5015050;28;20449;-64
2023/02/24 08:53:30;;;;;;;5.03;2.80;;;4.50;99.90;;;;;;5014448;28;20457;-64
2023/02/24 08:55:58;;;;;;;5.70;2.70;;;4.40;1.00;;;;;;5031556;28;20783;-65
2023/02/24 08:58:26;;;;;;;3.80;2.40;;;4.50;39.30;;;;;;5034441;28;20532;-64
2023/02/24 09:00:55;;;;;;;5.50;3.03;;;4.50;1.00;;;;;;5034467;28;20466;-65
2023/02/24 09:03:28;;;;;;;5.80;3.53;;;4.50;1.00;;;;;;5034440;28;20471;-64
2023/02/24 09:06:00;;;;;;;8.30;3.83;;;4.50;1.00;;;;;;5032928;28;20643;-64
2023/02/24 09:08:31;;;;;;;5.87;2.97;;;4.50;1.00;;;;;;5034334;28;20935;-64
2023/02/24 09:11:00;;;;;;;7.07;2.70;;;4.60;11.30;;;;;;5034426;28;20452;-63
2023/02/24 09:13:31;;;;;;;5.20;2.70;;;4.50;1.00;;;;;;5034418;28;20769;-63
2023/02/24 09:16:01;;;;;;;5.17;2.50;;;4.50;51.30;;;;;;5017934;28;20464;-63
2023/02/24 09:18:37;;;;;;;7.37;2.33;;;4.60;99.90;;;;;;5015281;28;20483;-63
2023/02/24 09:23:53;;;;;;;8.53;3.30;;;4.60;1.40;;;;;;5014960;28;20428;-63
2023/02/24 09:26:20;;;;;;;7.00;2.70;;;4.70;1.00;;;;;;5014863;28;20816;-62
2023/02/24 09:28:55;;;;;;;8.20;3.00;;;4.60;21.40;;;;;;5014095;28;20476;-63
2023/02/24 09:31:39;;;;;;;17.90;3.53;;;4.50;99.90;;;;;;5014488;28;20463;-64
2023/02/24 09:34:09;;;;;;;6.30;2.87;;;4.60;71.00;;;;;;5014458;28;20862;-63
2023/02/24 09:36:43;;;;;;;9.17;3.73;;;4.70;38.10;;;;;;5015099;28;20468;-62
2023/02/24 09:39:13;;;;;;;8.27;2.73;;;4.70;99.90;;;;;;5014485;28;20437;-63
2023/02/24 09:41:56;;;;;;;4.80;2.83;;;4.60;1.00;;;;;;5014374;28;20464;-63
2023/02/24 09:44:32;;;;;;;4.17;2.23;;;4.70;47.70;;;;;;5014350;28;20752;-62
2023/02/24 09:47:09;;;;;;;7.27;2.90;;;4.70;1.00;;;;;;5014601;28;20542;-62
2023/02/24 09:49:46;;;;;;;7.73;2.80;;;4.70;1.00;;;;;;5014288;28;20441;-63
2023/02/24 09:52:17;;;;;;;4.17;2.90;;;4.70;1.00;;;;;;5017410;28;20451;-61
2023/02/24 09:55:17;;;;;;;6.60;3.43;;;4.80;1.00;;;;;;5017936;28;20437;-63
2023/02/24 09:58:21;;;;;;;5.03;2.53;;;4.90;1.00;;;;;;5017189;28;20472;-63
2023/02/24 10:00:47;;;;;;;4.73;2.50;;;4.90;1.00;;;;;;5017321;28;20460;-62
2023/02/24 10:03:40;;;;;;;10.40;2.57;;;4.90;1.00;;;;;;5017713;28;20810;-64
2023/02/24 10:06:14;;;;;;;7.70;2.60;;;4.80;1.00;;;;;;5017641;28;20619;-63
2023/02/24 10:08:46;;;;;;;13.90;2.80;;;4.80;1.00;;;;;;5017522;28;20482;-63
2023/02/24 10:11:14;;;;;;;7.00;2.60;;;4.90;1.00;;;;;;5017487;28;20441;-62
2023/02/24 10:13:47;;;;;;;6.17;2.43;;;4.90;1.00;;;;;;5017375;28;20795;-63
2023/02/24 10:16:22;;;;;;;6.20;2.37;;;5.00;1.00;;;;;;5017207;28;20441;-64
2023/02/24 10:18:59;;;;;;;4.83;2.10;;;5.10;1.00;;;;;;5017247;28;20444;-63
2023/02/24 10:21:47;;;;;;;3.93;1.97;;;5.00;1.00;;;;;;5017150;28;20437;-64
2023/02/24 10:24:21;;;;;;;6.50;2.87;;;5.00;1.00;;;;;;5017372;28;20741;-63
2023/02/24 10:26:52;;;;;;;9.87;2.50;;;5.00;1.00;;;;;;5017309;28;20476;-63
2023/02/24 10:29:31;;;;;;;6.60;2.70;;;5.10;1.00;;;;;;5017232;28;20781;-64
2023/02/24 10:32:07;;;;;;;7.43;1.83;;;5.20;1.00;;;;;;5032926;28;20921;-64
2023/02/24 10:34:35;;;;;;;5.73;2.00;;;5.20;1.00;;;;;;5024361;28;20466;-63
2023/02/24 10:37:10;;;;;;;7.83;2.07;;;5.10;1.00;;;;;;5017069;28;20453;-65
2023/02/24 10:39:42;;;;;;;8.70;2.23;;;5.10;1.00;;;;;;5016784;28;20937;-63
2023/02/24 10:42:16;;;;;;;4.17;2.00;;;5.10;1.00;;;;;;5017005;28;20442;-64
2023/02/24 10:44:50;;;;;;;7.17;1.90;;;5.20;1.00;;;;;;5016563;28;20485;-63
2023/02/24 10:47:19;;;;;;;5.40;2.77;;;5.20;1.00;;;;;;5016610;28;20464;-65
2023/02/24 10:49:56;;;;;;;3.40;1.67;;;5.10;1.00;;;;;;5016676;28;20559;-64
2023/02/24 10:53:09;;;;;;;5.23;2.10;;;5.00;1.00;;;;;;5016573;28;20464;-63
2023/02/24 10:55:52;;;;;;;7.53;1.87;;;5.00;1.00;;;;;;5016472;28;20441;-62
2023/02/24 10:58:36;;;;;;;3.60;1.90;;;5.00;90.00;;;;;;5016378;28;20846;-64
2023/02/24 11:01:17;;;;;;;6.60;1.87;;;4.90;99.90;;;;;;5016545;28;20773;-64
2023/02/24 11:04:00;;;;;;;4.73;2.00;;;4.80;1.00;;;;;;5016101;28;20532;-62
2023/02/24 11:06:41;;;;;;;6.53;1.90;;;4.50;1.00;;;;;;5016551;28;20465;-64
2023/02/24 11:09:30;;;;;;;10.57;2.83;;;4.30;1.00;;;;;;5016825;28;20518;-63
2023/02/24 11:17:37;;;;;;;6.53;2.60;;;3.50;99.90;;;;;;5016585;28;20511;-63
2023/02/24 11:20:09;;;;;;;6.80;3.03;;;3.40;1.00;;;;;;5016069;28;20552;-61
2023/02/24 11:22:40;;;;;;;3.67;2.43;;;3.30;1.00;;;;;;5016225;28;20855;-63
2023/02/24 11:25:13;;;;;;;6.23;4.53;;;3.10;6.70;;;;;;5016014;28;20441;-64
2023/02/24 11:27:43;;;;;;;5.00;2.47;;;3.00;99.90;;;;;;5016251;28;20763;-64
2023/02/24 11:30:17;;;;;;;7.90;4.60;;;3.00;99.90;;;;;;5016585;28;20457;-64
2023/02/24 11:32:58;;;;;;;4.67;3.10;;;2.90;99.90;;;;;;5016139;28;20440;-64
2023/02/24 11:35:31;;;;;;;7.73;3.37;;;2.90;99.90;;;;;;5015828;28;20442;-64
2023/02/24 11:38:08;;;;;;;7.03;3.00;;;2.80;99.90;;;;;;5015684;28;20960;-65
2023/02/24 11:40:39;;;;;;;4.77;2.93;;;2.80;99.90;;;;;;5014744;28;20465;-65
2023/02/24 11:43:13;;;;;;;7.63;3.40;;;2.80;99.90;;;;;;5015616;28;20539;-65
2023/02/24 11:45:46;;;;;;;7.97;3.37;;;2.80;99.90;;;;;;5015344;28;20489;-64
2023/02/24 11:48:18;;;;;;;5.73;3.47;;;2.90;99.90;;;;;;5015816;28;20445;-65
2023/02/24 11:50:47;;;;;;;4.47;3.20;;;2.80;99.90;;;;;;5015790;28;20510;-64
2023/02/24 11:53:24;;;;;;;4.23;2.90;;;2.80;99.90;;;;;;5015718;28;20961;-65
2023/02/24 11:55:57;;;;;;;4.60;2.90;;;2.80;99.90;;;;;;5015268;28;20559;-64
2023/02/24 11:58:30;;;;;;;6.70;3.80;;;2.80;99.90;;;;;;5015296;28;20463;-64
2023/02/24 12:01:03;;;;;;;5.17;3.47;;;2.80;99.90;;;;;;5016087;28;20463;-64
2023/02/24 12:03:36;;;;;;;6.50;3.67;;;2.80;99.90;;;;;;5015626;28;20481;-68
2023/02/24 12:06:14;;;;;;;10.33;3.50;;;2.90;99.90;;;;;;5015494;28;20447;-68
2023/02/24 12:08:45;;;;;;;4.83;2.83;;;2.90;99.90;;;;;;5015596;28;20452;-69
2023/02/24 12:11:20;;;;;;;6.40;2.67;;;2.90;99.90;;;;;;5015536;28;20838;-67
2023/02/24 12:13:52;;;;;;;7.20;3.37;;;2.90;99.90;;;;;;5015111;28;20452;-68
2023/02/24 12:16:23;;;;;;;7.80;4.03;;;2.90;99.90;;;;;;5015225;28;20499;-68
2023/02/24 12:18:59;;;;;;;11.63;3.80;;;2.90;99.90;;;;;;5015369;28;20445;-67
2023/02/24 12:21:32;;;;;;;8.80;3.67;;;2.90;99.90;;;;;;5015239;28;20455;-68
2023/02/24 12:24:04;;;;;;;8.10;3.13;;;3.00;99.90;;;;;;5015164;28;20440;-68
2023/02/24 12:26:41;;;;;;;5.10;3.40;;;2.90;99.90;;;;;;5015261;28;20433;-67
2023/02/24 12:29:27;;;;;;;6.70;3.37;;;2.90;99.90;;;;;;5014809;28;20467;-67
2023/02/24 12:32:03;;;;;;;6.83;3.30;;;2.90;99.90;;;;;;5014929;28;20476;-68
2023/02/24 12:34:44;;;;;;;6.70;3.20;;;2.90;99.90;;;;;;5014959;28;20445;-68
2023/02/24 12:37:35;;;;;;;5.43;2.80;;;2.80;99.90;;;;;;5015000;28;20473;-68
2023/02/24 12:40:15;;;;;;;8.40;2.87;;;2.80;99.90;;;;;;5015087;28;20530;-68
2023/02/24 12:42:52;;;;;;;8.73;2.70;;;2.80;99.90;;;;;;5015327;28;20524;-68
2023/02/24 12:45:25;;;;;;;6.10;2.90;;;2.80;99.90;;;;;;5014681;28;20495;-68
2023/02/24 12:48:03;;;;;;;3.87;2.53;;;2.70;99.90;;;;;;5015323;28;20437;-68
2023/02/24 12:50:41;;;;;;;4.20;3.67;;;2.60;99.90;;;;;;5014676;28;20443;-68
2023/02/24 12:53:17;;;;;;;6.73;2.17;;;2.60;99.90;;;;;;5014913;28;20833;-68
2023/02/24 12:55:55;;;;;;;3.20;2.50;;;2.60;99.90;;;;;;5014923;28;20441;-68
2023/02/24 12:58:26;;;;;;;6.80;2.70;;;2.60;99.90;;;;;;5014806;28;20441;-69
2023/02/24 13:01:04;;;;;;;7.50;2.47;;;2.50;99.90;;;;;;5015032;28;20866;-69
2023/02/24 13:03:44;;;;;;;6.40;1.93;;;2.60;99.90;;;;;;5014470;28;20441;-68
2023/02/24 13:06:18;;;;;;;5.33;2.50;;;2.60;99.90;;;;;;5014634;28;20437;-69
2023/02/24 13:08:57;;;;;;;9.60;3.00;;;2.60;99.90;;;;;;5014252;28;20909;-69
2023/02/24 13:11:37;;;;;;;7.10;3.40;;;2.50;99.90;;;;;;5014513;28;20451;-69
2023/02/24 13:14:12;;;;;;;5.53;2.70;;;2.60;99.90;;;;;;5014726;28;20476;-69
2023/02/24 13:16:40;;;;;;;6.73;3.00;;;2.60;99.90;;;;;;5015359;28;20468;-69
2023/02/24 13:19:18;;;;;;;4.73;2.20;;;2.60;99.90;;;;;;5014800;28;20552;-69
2023/02/24 13:21:55;;;;;;;5.17;3.10;;;2.60;99.90;;;;;;5015471;28;20445;-69
2023/02/24 13:24:24;;;;;;;6.07;2.37;;;2.60;99.90;;;;;;5014863;28;20455;-69
2023/02/24 13:26:52;;;;;;;7.73;2.80;;;2.70;99.90;;;;;;5017547;28;20453;-67
2023/02/24 13:29:19;;;;;;;3.53;2.70;;;2.50;99.90;;;;;;5018484;28;20457;-67
2023/02/24 13:31:48;;;;;;;4.13;2.90;;;2.60;99.90;;;;;;5018866;28;20850;-67
2023/02/24 13:34:29;;;;;;;4.57;3.10;;;2.60;99.90;;;;;;5018692;28;20467;-67
2023/02/24 13:36:57;;;;;;;4.07;3.03;;;2.50;99.90;;;;;;5019002;28;20479;-67
2023/02/24 13:39:31;;;;;;;3.30;3.00;;;2.50;99.90;;;;;;5019044;28;20551;-68
2023/02/24 13:42:05;;;;;;;5.53;3.03;;;2.50;99.90;;;;;;5019923;28;20451;-68